sensor_id;sensor_type;location;lat;lon;timestamp;pressure;altitude;pressure_sealevel;temperature;humidity
73600;BME280;61877;48.246;9.220;2023-05-20T00:01:01;94170.09;;;10.97;79.89
73600;BME280;61877;48.246;9.220;2023-05-20T00:03:40;94169.53;;;10.91;79.48
73600;BME280;61877;48.246;9.220;2023-05-20T00:06:10;94164.38;;;10.98;79.16
73600;BME280;61877;48.246;9.220;2023-05-20T00:08:36;94175.91;;;10.99;79.42
73600;BME280;61877;48.246;9.220;2023-05-20T00:11:09;94165.97;;;10.99;80.52
73600;BME280;61877;48.246;9.220;2023-05-20T00:13:39;94175.13;;;10.98;80.13
73600;BME280;61877;48.246;9.220;2023-05-20T00:16:25;94163.28;;;10.99;80.56
73600;BME280;61877;48.246;9.220;2023-05-20T00:18:56;94164.38;;;10.98;79.80
73600;BME280;61877;48.246;9.220;2023-05-20T00:21:27;94160.59;;;10.99;80.25
73600;BME280;61877;48.246;9.220;2023-05-20T00:23:53;94157.22;;;11.02;79.30
73600;BME280;61877;48.246;9.220;2023-05-20T00:26:24;94154.56;;;11.02;79.38
73600;BME280;61877;48.246;9.220;2023-05-20T00:28:51;94152.22;;;11.01;79.19
73600;BME280;61877;48.246;9.220;2023-05-20T00:31:17;94153.75;;;11.02;79.02
73600;BME280;61877;48.246;9.220;2023-05-20T00:34:08;94158.69;;;11.00;79.09
73600;BME280;61877;48.246;9.220;2023-05-20T00:36:34;94154.44;;;10.99;79.51
73600;BME280;61877;48.246;9.220;2023-05-20T00:38:59;94148.28;;;10.98;79.64
73600;BME280;61877;48.246;9.220;2023-05-20T00:41:35;94146.03;;;11.00;79.64
73600;BME280;61877;48.246;9.220;2023-05-20T00:44:02;94140.22;;;10.98;80.05
73600;BME280;61877;48.246;9.220;2023-05-20T00:46:28;94142.03;;;10.94;81.25
73600;BME280;61877;48.246;9.220;2023-05-20T00:48:55;94144.28;;;10.92;81.46
73600;BME280;61877;48.246;9.220;2023-05-20T00:51:24;94139.59;;;10.89;80.39
73600;BME280;61877;48.246;9.220;2023-05-20T00:53:49;94139.25;;;10.91;80.64
73600;BME280;61877;48.246;9.220;2023-05-20T00:56:15;94141.13;;;10.90;80.38
73600;BME280;61877;48.246;9.220;2023-05-20T00:58:42;94136.91;;;10.89;80.74
73600;BME280;61877;48.246;9.220;2023-05-20T01:01:09;94134.97;;;10.90;80.50
73600;BME280;61877;48.246;9.220;2023-05-20T01:03:34;94136.78;;;10.86;81.65
73600;BME280;61877;48.246;9.220;2023-05-20T01:06:01;94138.69;;;10.85;81.89
73600;BME280;61877;48.246;9.220;2023-05-20T01:08:26;94138.69;;;10.85;82.05
73600;BME280;61877;48.246;9.220;2023-05-20T01:11:01;94137.13;;;10.84;82.27
73600;BME280;61877;48.246;9.220;2023-05-20T01:13:32;94129.41;;;10.83;82.64
73600;BME280;61877;48.246;9.220;2023-05-20T01:16:02;94120.56;;;10.82;81.87
73600;BME280;61877;48.246;9.220;2023-05-20T01:18:39;94122.47;;;10.82;82.22
73600;BME280;61877;48.246;9.220;2023-05-20T01:21:07;94125.59;;;10.84;82.75
73600;BME280;61877;48.246;9.220;2023-05-20T01:23:43;94130.19;;;10.83;82.62
73600;BME280;61877;48.246;9.220;2023-05-20T01:26:08;94130.97;;;10.84;82.20
73600;BME280;61877;48.246;9.220;2023-05-20T01:28:35;94127.50;;;10.83;81.81
73600;BME280;61877;48.246;9.220;2023-05-20T01:31:02;94119.91;;;10.85;81.96
73600;BME280;61877;48.246;9.220;2023-05-20T01:33:51;94121.03;;;10.84;82.51
73600;BME280;61877;48.246;9.220;2023-05-20T01:36:34;94111.06;;;10.85;82.26
73600;BME280;61877;48.246;9.220;2023-05-20T01:39:01;94112.53;;;10.82;82.28
73600;BME280;61877;48.246;9.220;2023-05-20T01:41:28;94103.34;;;10.83;82.09
73600;BME280;61877;48.246;9.220;2023-05-20T01:46:50;94102.47;;;10.79;82.70
73600;BME280;61877;48.246;9.220;2023-05-20T01:49:29;94106.94;;;10.75;83.20
73600;BME280;61877;48.246;9.220;2023-05-20T01:52:14;94103.69;;;10.70;83.56
73600;BME280;61877;48.246;9.220;2023-05-20T01:54:46;94107.84;;;10.67;83.65
73600;BME280;61877;48.246;9.220;2023-05-20T01:57:20;94108.28;;;10.69;83.55
73600;BME280;61877;48.246;9.220;2023-05-20T01:59:59;94106.38;;;10.70;83.63
73600;BME280;61877;48.246;9.220;2023-05-20T02:02:28;94118.47;;;10.76;83.98
73600;BME280;61877;48.246;9.220;2023-05-20T02:04:54;94114.19;;;10.75;83.95
73600;BME280;61877;48.246;9.220;2023-05-20T02:07:30;94121.13;;;10.76;83.95
73600;BME280;61877;48.246;9.220;2023-05-20T02:10:16;94112.75;;;10.77;84.34
73600;BME280;61877;48.246;9.220;2023-05-20T02:12:50;94113.84;;;10.76;83.61
73600;BME280;61877;48.246;9.220;2023-05-20T02:15:17;94110.06;;;10.77;83.60
73600;BME280;61877;48.246;9.220;2023-05-20T02:17:42;94113.19;;;10.79;83.59
73600;BME280;61877;48.246;9.220;2023-05-20T02:20:08;94113.63;;;10.81;83.63
73600;BME280;61877;48.246;9.220;2023-05-20T02:22:45;94118.75;;;10.86;83.77
73600;BME280;61877;48.246;9.220;2023-05-20T02:25:11;94111.63;;;10.90;84.12
73600;BME280;61877;48.246;9.220;2023-05-20T02:27:38;94117.09;;;10.94;84.61
73600;BME280;61877;48.246;9.220;2023-05-20T02:30:05;94116.63;;;10.92;85.72
73600;BME280;61877;48.246;9.220;2023-05-20T02:32:30;94112.63;;;10.86;85.62
73600;BME280;61877;48.246;9.220;2023-05-20T02:34:58;94117.22;;;10.85;85.94
73600;BME280;61877;48.246;9.220;2023-05-20T02:37:23;94116.31;;;10.81;85.97
73600;BME280;61877;48.246;9.220;2023-05-20T02:39:49;94123.94;;;10.79;86.66
73600;BME280;61877;48.246;9.220;2023-05-20T02:42:15;94115.66;;;10.72;86.89
73600;BME280;61877;48.246;9.220;2023-05-20T02:44:41;94125.16;;;10.70;87.97
73600;BME280;61877;48.246;9.220;2023-05-20T02:47:10;94117.44;;;10.68;87.02
73600;BME280;61877;48.246;9.220;2023-05-20T02:49:36;94119.03;;;10.69;86.82
73600;BME280;61877;48.246;9.220;2023-05-20T02:52:01;94114.88;;;10.72;86.84
73600;BME280;61877;48.246;9.220;2023-05-20T02:54:26;94118.00;;;10.74;87.29
73600;BME280;61877;48.246;9.220;2023-05-20T02:56:52;94111.28;;;10.80;86.68
73600;BME280;61877;48.246;9.220;2023-05-20T02:59:18;94102.88;;;10.81;86.88
73600;BME280;61877;48.246;9.220;2023-05-20T03:01:45;94110.28;;;10.84;87.50
73600;BME280;61877;48.246;9.220;2023-05-20T03:04:10;94101.56;;;10.87;87.68
73600;BME280;61877;48.246;9.220;2023-05-20T03:06:35;94110.06;;;10.89;87.79
73600;BME280;61877;48.246;9.220;2023-05-20T03:09:20;94108.59;;;10.92;88.39
73600;BME280;61877;48.246;9.220;2023-05-20T03:11:47;94107.16;;;10.94;87.97
73600;BME280;61877;48.246;9.220;2023-05-20T03:14:29;94107.91;;;10.95;87.30
73600;BME280;61877;48.246;9.220;2023-05-20T03:17:05;94102.66;;;10.98;88.53
73600;BME280;61877;48.246;9.220;2023-05-20T03:19:31;94093.88;;;11.13;88.06
73600;BME280;61877;48.246;9.220;2023-05-20T03:21:59;94090.41;;;11.13;88.32
73600;BME280;61877;48.246;9.220;2023-05-20T03:24:36;94087.84;;;11.16;88.46
73600;BME280;61877;48.246;9.220;2023-05-20T03:27:03;94085.81;;;11.25;87.79
73600;BME280;61877;48.246;9.220;2023-05-20T03:29:40;94088.59;;;11.29;88.40
73600;BME280;61877;48.246;9.220;2023-05-20T03:35:35;94079.06;;;11.31;87.43
73600;BME280;61877;48.246;9.220;2023-05-20T03:41:05;94075.78;;;11.38;87.73
73600;BME280;61877;48.246;9.220;2023-05-20T03:43:31;94075.44;;;11.39;87.66
73600;BME280;61877;48.246;9.220;2023-05-20T03:46:29;94077.03;;;11.40;87.59
73600;BME280;61877;48.246;9.220;2023-05-20T03:52:02;94085.69;;;11.49;87.84
73600;BME280;61877;48.246;9.220;2023-05-20T03:54:27;94086.84;;;11.48;87.69
73600;BME280;61877;48.246;9.220;2023-05-20T03:56:52;94083.34;;;11.48;88.11
73600;BME280;61877;48.246;9.220;2023-05-20T03:59:40;94082.25;;;11.49;88.24
73600;BME280;61877;48.246;9.220;2023-05-20T04:04:41;94078.44;;;11.50;87.74
73600;BME280;61877;48.246;9.220;2023-05-20T04:07:09;94078.53;;;11.53;88.03
73600;BME280;61877;48.246;9.220;2023-05-20T04:09:40;94083.47;;;11.51;88.14
73600;BME280;61877;48.246;9.220;2023-05-20T04:12:13;94084.34;;;11.55;88.35
73600;BME280;61877;48.246;9.220;2023-05-20T04:14:39;94078.63;;;11.57;88.07
73600;BME280;61877;48.246;9.220;2023-05-20T04:17:12;94084.09;;;11.60;87.75
73600;BME280;61877;48.246;9.220;2023-05-20T04:19:37;94084.50;;;11.62;87.80
73600;BME280;61877;48.246;9.220;2023-05-20T04:22:14;94078.94;;;11.67;87.46
73600;BME280;61877;48.246;9.220;2023-05-20T04:24:54;94075.81;;;11.65;87.05
73600;BME280;61877;48.246;9.220;2023-05-20T04:27:25;94082.41;;;11.68;87.37
73600;BME280;61877;48.246;9.220;2023-05-20T04:29:56;94082.06;;;11.69;87.07
73600;BME280;61877;48.246;9.220;2023-05-20T04:32:22;94083.63;;;11.71;87.29
73600;BME280;61877;48.246;9.220;2023-05-20T04:34:49;94087.53;;;11.73;87.29
73600;BME280;61877;48.246;9.220;2023-05-20T04:37:25;94080.94;;;11.71;87.64
73600;BME280;61877;48.246;9.220;2023-05-20T04:39:53;94086.75;;;11.73;87.80
73600;BME280;61877;48.246;9.220;2023-05-20T04:42:21;94083.34;;;11.76;87.97
73600;BME280;61877;48.246;9.220;2023-05-20T04:44:50;94091.88;;;11.78;87.42
73600;BME280;61877;48.246;9.220;2023-05-20T04:47:18;94084.59;;;11.78;87.74
73600;BME280;61877;48.246;9.220;2023-05-20T04:49:44;94085.78;;;11.81;86.97
73600;BME280;61877;48.246;9.220;2023-05-20T04:52:15;94089.72;;;11.83;87.58
73600;BME280;61877;48.246;9.220;2023-05-20T04:54:48;94077.81;;;11.84;86.23
73600;BME280;61877;48.246;9.220;2023-05-20T04:57:16;94076.38;;;11.87;86.51
73600;BME280;61877;48.246;9.220;2023-05-20T05:02:20;94072.53;;;11.88;85.97
73600;BME280;61877;48.246;9.220;2023-05-20T05:04:48;94069.16;;;11.91;86.29
73600;BME280;61877;48.246;9.220;2023-05-20T05:07:22;94068.25;;;11.99;85.05
73600;BME280;61877;48.246;9.220;2023-05-20T05:09:56;94073.28;;;12.00;86.32
73600;BME280;61877;48.246;9.220;2023-05-20T05:12:21;94073.97;;;12.13;85.18
73600;BME280;61877;48.246;9.220;2023-05-20T05:14:49;94064.19;;;12.20;84.61
73600;BME280;61877;48.246;9.220;2023-05-20T05:17:17;94065.63;;;12.18;84.31
73600;BME280;61877;48.246;9.220;2023-05-20T05:19:51;94053.75;;;12.34;83.84
73600;BME280;61877;48.246;9.220;2023-05-20T05:22:16;94055.13;;;12.44;83.34
73600;BME280;61877;48.246;9.220;2023-05-20T05:24:50;94050.97;;;12.46;83.64
73600;BME280;61877;48.246;9.220;2023-05-20T05:27:17;94056.56;;;12.57;83.42
73600;BME280;61877;48.246;9.220;2023-05-20T05:29:49;94048.94;;;12.59;83.66
73600;BME280;61877;48.246;9.220;2023-05-20T05:32:19;94054.84;;;12.64;82.59
73600;BME280;61877;48.246;9.220;2023-05-20T05:34:44;94056.72;;;12.64;82.51
73600;BME280;61877;48.246;9.220;2023-05-20T05:37:10;94066.84;;;12.51;82.71
73600;BME280;61877;48.246;9.220;2023-05-20T05:39:35;94064.31;;;12.58;83.45
73600;BME280;61877;48.246;9.220;2023-05-20T05:45:04;94063.63;;;12.61;82.81
73600;BME280;61877;48.246;9.220;2023-05-20T05:47:39;94063.34;;;12.66;82.84
73600;BME280;61877;48.246;9.220;2023-05-20T05:50:23;94066.78;;;12.67;81.82
73600;BME280;61877;48.246;9.220;2023-05-20T05:53:12;94064.31;;;12.58;82.35
73600;BME280;61877;48.246;9.220;2023-05-20T05:55:40;94065.97;;;12.47;82.69
73600;BME280;61877;48.246;9.220;2023-05-20T05:58:06;94069.63;;;12.39;83.15
73600;BME280;61877;48.246;9.220;2023-05-20T06:00:43;94057.91;;;12.32;82.54
73600;BME280;61877;48.246;9.220;2023-05-20T06:03:13;94064.06;;;12.32;82.80
73600;BME280;61877;48.246;9.220;2023-05-20T06:05:39;94066.56;;;12.41;83.15
73600;BME280;61877;48.246;9.220;2023-05-20T06:08:04;94063.63;;;12.46;82.74
73600;BME280;61877;48.246;9.220;2023-05-20T06:10:30;94058.25;;;12.46;82.70
73600;BME280;61877;48.246;9.220;2023-05-20T06:12:55;94057.13;;;12.47;82.10
73600;BME280;61877;48.246;9.220;2023-05-20T06:15:21;94053.03;;;12.53;82.70
73600;BME280;61877;48.246;9.220;2023-05-20T06:17:48;94058.84;;;12.55;81.62
73600;BME280;61877;48.246;9.220;2023-05-20T06:20:13;94057.53;;;12.64;82.18
73600;BME280;61877;48.246;9.220;2023-05-20T06:22:39;94057.44;;;12.61;82.50
73600;BME280;61877;48.246;9.220;2023-05-20T06:50:47;94038.38;;;13.20;79.06
73600;BME280;61877;48.246;9.220;2023-05-20T06:53:13;94040.50;;;13.30;78.91
73600;BME280;61877;48.246;9.220;2023-05-20T06:55:42;94034.53;;;13.40;78.93
73600;BME280;61877;48.246;9.220;2023-05-20T06:58:07;94047.19;;;13.58;77.91
73600;BME280;61877;48.246;9.220;2023-05-20T07:00:33;94054.88;;;13.56;76.82
73600;BME280;61877;48.246;9.220;2023-05-20T07:03:01;94056.97;;;13.66;77.53
73600;BME280;61877;48.246;9.220;2023-05-20T07:05:29;94053.34;;;13.78;77.68
73600;BME280;61877;48.246;9.220;2023-05-20T07:07:58;94046.31;;;13.92;76.07
73600;BME280;61877;48.246;9.220;2023-05-20T07:10:24;94044.56;;;14.03;76.75
73600;BME280;61877;48.246;9.220;2023-05-20T07:12:49;94040.31;;;14.02;75.73
73600;BME280;61877;48.246;9.220;2023-05-20T07:15:15;94032.25;;;13.83;77.06
73600;BME280;61877;48.246;9.220;2023-05-20T07:17:57;94024.53;;;13.82;76.95
73600;BME280;61877;48.246;9.220;2023-05-20T07:20:25;94017.97;;;13.79;75.80
73600;BME280;61877;48.246;9.220;2023-05-20T07:23:05;94016.38;;;13.78;76.96
73600;BME280;61877;48.246;9.220;2023-05-20T07:25:39;94008.13;;;13.90;75.50
73600;BME280;61877;48.246;9.220;2023-05-20T07:29:46;94019.88;;;14.01;75.48
73600;BME280;61877;48.246;9.220;2023-05-20T07:31:15;94025.16;;;13.94;75.41
73600;BME280;61877;48.246;9.220;2023-05-20T07:33:42;94026.94;;;14.09;73.70
73600;BME280;61877;48.246;9.220;2023-05-20T07:36:11;94040.19;;;13.95;74.80
73600;BME280;61877;48.246;9.220;2023-05-20T07:38:49;94029.63;;;14.09;73.08
73600;BME280;61877;48.246;9.220;2023-05-20T07:41:33;94029.81;;;14.20;74.29
73600;BME280;61877;48.246;9.220;2023-05-20T07:44:12;94022.63;;;14.50;73.91
73600;BME280;61877;48.246;9.220;2023-05-20T07:46:38;94023.66;;;14.68;70.98
73600;BME280;61877;48.246;9.220;2023-05-20T07:49:14;94033.94;;;14.59;71.82
73600;BME280;61877;48.246;9.220;2023-05-20T07:52:27;94031.81;;;14.72;69.28
73600;BME280;61877;48.246;9.220;2023-05-20T07:54:29;94028.13;;;14.83;69.81
73600;BME280;61877;48.246;9.220;2023-05-20T07:57:07;94029.91;;;14.72;69.53
73600;BME280;61877;48.246;9.220;2023-05-20T07:59:51;94032.44;;;14.88;70.12
73600;BME280;61877;48.246;9.220;2023-05-20T08:02:25;94028.50;;;14.82;69.34
73600;BME280;61877;48.246;9.220;2023-05-20T08:33:53;94026.75;;;16.80;61.30
73600;BME280;61877;48.246;9.220;2023-05-20T08:36:30;94026.72;;;16.72;62.93
73600;BME280;61877;48.246;9.220;2023-05-20T08:39:17;94023.78;;;17.02;61.32
73600;BME280;61877;48.246;9.220;2023-05-20T08:45:02;94020.56;;;16.79;61.95
73600;BME280;61877;48.246;9.220;2023-05-20T08:50:43;94019.78;;;17.47;60.18
73600;BME280;61877;48.246;9.220;2023-05-20T08:55:59;94019.09;;;17.78;58.03
73600;BME280;61877;48.246;9.220;2023-05-20T09:05:00;94025.31;;;17.75;57.61
73600;BME280;61877;48.246;9.220;2023-05-20T09:07:47;94027.97;;;17.57;58.16
73600;BME280;61877;48.246;9.220;2023-05-20T09:13:17;94020.25;;;17.73;57.72
73600;BME280;61877;48.246;9.220;2023-05-20T11:52:35;93906.78;;;25.79;39.46
73600;BME280;61877;48.246;9.220;2023-05-20T11:58:00;93911.97;;;25.35;39.71
73600;BME280;61877;48.246;9.220;2023-05-20T12:00:29;93910.75;;;25.90;41.60
73600;BME280;61877;48.246;9.220;2023-05-20T12:03:08;93907.41;;;25.58;40.43
73600;BME280;61877;48.246;9.220;2023-05-20T12:05:33;93905.97;;;25.53;40.82
73600;BME280;61877;48.246;9.220;2023-05-20T12:08:00;93902.03;;;24.97;39.42
73600;BME280;61877;48.246;9.220;2023-05-20T12:10:26;93896.63;;;25.22;39.03
73600;BME280;61877;48.246;9.220;2023-05-20T12:12:54;93899.91;;;24.88;43.90
73600;BME280;61877;48.246;9.220;2023-05-20T12:15:20;93902.00;;;25.25;38.87
73600;BME280;61877;48.246;9.220;2023-05-20T12:17:48;93905.22;;;24.95;41.53
73600;BME280;61877;48.246;9.220;2023-05-20T12:20:20;93902.69;;;25.58;41.56
73600;BME280;61877;48.246;9.220;2023-05-20T12:22:49;93914.78;;;25.61;41.21
73600;BME280;61877;48.246;9.220;2023-05-20T12:25:17;93901.75;;;26.52;39.82
73600;BME280;61877;48.246;9.220;2023-05-20T12:27:43;93905.19;;;26.31;37.24
73600;BME280;61877;48.246;9.220;2023-05-20T12:30:09;93897.16;;;26.24;38.83
73600;BME280;61877;48.246;9.220;2023-05-20T12:32:36;93900.31;;;25.85;38.58
73600;BME280;61877;48.246;9.220;2023-05-20T12:35:03;93899.03;;;24.59;40.18
73600;BME280;61877;48.246;9.220;2023-05-20T12:37:29;93897.59;;;23.51;42.21
73600;BME280;61877;48.246;9.220;2023-05-20T12:40:13;93901.63;;;23.08;42.61
73600;BME280;61877;48.246;9.220;2023-05-20T12:42:43;93906.38;;;22.61;44.80
73600;BME280;61877;48.246;9.220;2023-05-20T12:45:08;93909.22;;;23.39;46.01
73600;BME280;61877;48.246;9.220;2023-05-20T12:47:42;93902.94;;;23.58;44.24
73600;BME280;61877;48.246;9.220;2023-05-20T12:50:12;93907.91;;;24.51;43.69
73600;BME280;61877;48.246;9.220;2023-05-20T12:52:37;93900.19;;;25.06;40.14
73600;BME280;61877;48.246;9.220;2023-05-20T12:55:03;93907.69;;;24.90;41.43
73600;BME280;61877;48.246;9.220;2023-05-20T12:57:29;93898.97;;;25.65;39.44
73600;BME280;61877;48.246;9.220;2023-05-20T12:59:55;93900.47;;;26.19;39.76
73600;BME280;61877;48.246;9.220;2023-05-20T13:02:30;93892.50;;;25.30;38.91
73600;BME280;61877;48.246;9.220;2023-05-20T13:04:55;93892.59;;;25.26;37.55
73600;BME280;61877;48.246;9.220;2023-05-20T13:07:22;93884.44;;;25.64;39.16
73600;BME280;61877;48.246;9.220;2023-05-20T13:09:56;93887.59;;;25.37;42.31
73600;BME280;61877;48.246;9.220;2023-05-20T13:12:21;93888.16;;;25.16;41.41
73600;BME280;61877;48.246;9.220;2023-05-20T13:14:56;93891.53;;;25.36;41.38
73600;BME280;61877;48.246;9.220;2023-05-20T13:17:35;93884.44;;;25.52;38.73
73600;BME280;61877;48.246;9.220;2023-05-20T13:20:05;93885.25;;;26.40;40.14
73600;BME280;61877;48.246;9.220;2023-05-20T13:23:01;93881.81;;;26.74;37.16
73600;BME280;61877;48.246;9.220;2023-05-20T13:25:28;93880.84;;;27.23;36.80
73600;BME280;61877;48.246;9.220;2023-05-20T13:27:54;93857.19;;;27.78;34.88
73600;BME280;61877;48.246;9.220;2023-05-20T13:30:20;93871.25;;;27.71;34.36
73600;BME280;61877;48.246;9.220;2023-05-20T13:32:48;93866.97;;;27.48;33.85
73600;BME280;61877;48.246;9.220;2023-05-20T13:35:37;93873.56;;;26.74;34.85
73600;BME280;61877;48.246;9.220;2023-05-20T13:38:02;93870.41;;;27.31;36.05
73600;BME280;61877;48.246;9.220;2023-05-20T13:40:28;93868.56;;;28.50;34.82
73600;BME280;61877;48.246;9.220;2023-05-20T13:42:54;93872.00;;;27.93;33.80
73600;BME280;61877;48.246;9.220;2023-05-20T13:45:20;93855.94;;;27.70;33.06
73600;BME280;61877;48.246;9.220;2023-05-20T13:47:50;93851.41;;;27.85;33.43
73600;BME280;61877;48.246;9.220;2023-05-20T13:50:15;93864.63;;;27.90;33.97
73600;BME280;61877;48.246;9.220;2023-05-20T13:52:41;93853.53;;;28.51;32.70
73600;BME280;61877;48.246;9.220;2023-05-20T13:55:07;93846.25;;;29.30;34.01
73600;BME280;61877;48.246;9.220;2023-05-20T13:57:35;93851.25;;;30.18;31.79
73600;BME280;61877;48.246;9.220;2023-05-20T14:00:00;93844.34;;;30.13;30.23
73600;BME280;61877;48.246;9.220;2023-05-20T14:02:26;93845.44;;;28.84;31.05
73600;BME280;61877;48.246;9.220;2023-05-20T14:04:52;93838.72;;;29.12;30.55
73600;BME280;61877;48.246;9.220;2023-05-20T14:07:24;93839.94;;;29.20;30.20
73600;BME280;61877;48.246;9.220;2023-05-20T14:09:49;93825.78;;;28.55;32.79
73600;BME280;61877;48.246;9.220;2023-05-20T14:12:15;93834.72;;;29.22;32.75
73600;BME280;61877;48.246;9.220;2023-05-20T14:14:43;93833.53;;;29.92;31.05
73600;BME280;61877;48.246;9.220;2023-05-20T14:17:33;93841.00;;;28.77;33.20
73600;BME280;61877;48.246;9.220;2023-05-20T14:23:19;93826.66;;;26.99;34.23
73600;BME280;61877;48.246;9.220;2023-05-20T14:25:54;93829.50;;;27.08;35.90
73600;BME280;61877;48.246;9.220;2023-05-20T14:28:20;93823.13;;;26.17;36.36
73600;BME280;61877;48.246;9.220;2023-05-20T14:30:46;93839.84;;;26.10;36.66
73600;BME280;61877;48.246;9.220;2023-05-20T14:33:11;93825.72;;;27.36;35.06
73600;BME280;61877;48.246;9.220;2023-05-20T14:35:37;93826.72;;;28.79;30.59
73600;BME280;61877;48.246;9.220;2023-05-20T14:38:07;93823.88;;;31.38;30.37
73600;BME280;61877;48.246;9.220;2023-05-20T14:40:38;93822.09;;;31.49;28.64
73600;BME280;61877;48.246;9.220;2023-05-20T14:43:18;93818.66;;;33.02;27.66
73600;BME280;61877;48.246;9.220;2023-05-20T14:45:47;93829.84;;;31.75;27.52
73600;BME280;61877;48.246;9.220;2023-05-20T14:48:13;93819.91;;;32.12;27.51
73600;BME280;61877;48.246;9.220;2023-05-20T14:50:38;93818.28;;;31.91;27.50
73600;BME280;61877;48.246;9.220;2023-05-20T14:53:04;93817.66;;;32.85;25.65
73600;BME280;61877;48.246;9.220;2023-05-20T14:55:29;93818.44;;;33.06;25.70
73600;BME280;61877;48.246;9.220;2023-05-20T14:58:01;93821.28;;;32.71;28.39
73600;BME280;61877;48.246;9.220;2023-05-20T15:00:27;93821.22;;;31.58;27.54
73600;BME280;61877;48.246;9.220;2023-05-20T15:02:53;93828.00;;;31.42;26.93
73600;BME280;61877;48.246;9.220;2023-05-20T15:05:19;93831.47;;;31.81;28.44
73600;BME280;61877;48.246;9.220;2023-05-20T15:07:44;93832.53;;;29.71;31.25
73600;BME280;61877;48.246;9.220;2023-05-20T15:10:12;93836.72;;;27.88;32.47
73600;BME280;61877;48.246;9.220;2023-05-20T15:12:38;93839.03;;;27.59;34.13
73600;BME280;61877;48.246;9.220;2023-05-20T15:15:06;93844.41;;;29.27;30.74
73600;BME280;61877;48.246;9.220;2023-05-20T15:17:35;93838.38;;;30.71;29.81
73600;BME280;61877;48.246;9.220;2023-05-20T15:20:03;93840.66;;;31.43;28.27
73600;BME280;61877;48.246;9.220;2023-05-20T15:22:29;93832.31;;;30.58;27.84
73600;BME280;61877;48.246;9.220;2023-05-20T15:24:54;93821.31;;;32.91;25.32
73600;BME280;61877;48.246;9.220;2023-05-20T15:27:20;93818.94;;;32.15;26.40
73600;BME280;61877;48.246;9.220;2023-05-20T15:29:46;93820.94;;;31.41;28.46
73600;BME280;61877;48.246;9.220;2023-05-20T15:32:13;93828.53;;;30.79;28.87
73600;BME280;61877;48.246;9.220;2023-05-20T15:34:47;93824.41;;;31.80;28.52
73600;BME280;61877;48.246;9.220;2023-05-20T15:37:13;93813.97;;;33.14;25.55
73600;BME280;61877;48.246;9.220;2023-05-20T15:39:39;93814.00;;;32.39;27.16
73600;BME280;61877;48.246;9.220;2023-05-20T15:42:04;93822.00;;;33.06;25.56
73600;BME280;61877;48.246;9.220;2023-05-20T15:44:33;93817.44;;;33.74;26.68
73600;BME280;61877;48.246;9.220;2023-05-20T15:46:59;93823.09;;;32.39;25.69
73600;BME280;61877;48.246;9.220;2023-05-20T15:49:28;93827.06;;;31.60;28.76
73600;BME280;61877;48.246;9.220;2023-05-20T15:51:53;93830.19;;;29.88;31.12
73600;BME280;61877;48.246;9.220;2023-05-20T15:54:21;93827.81;;;28.81;31.20
73600;BME280;61877;48.246;9.220;2023-05-20T15:56:47;93828.38;;;28.01;31.92
73600;BME280;61877;48.246;9.220;2023-05-20T15:59:12;93826.72;;;27.81;32.85
73600;BME280;61877;48.246;9.220;2023-05-20T16:01:38;93819.81;;;27.25;35.45
73600;BME280;61877;48.246;9.220;2023-05-20T16:04:08;93818.38;;;27.94;33.91
73600;BME280;61877;48.246;9.220;2023-05-20T16:06:40;93821.13;;;28.43;34.15
73600;BME280;61877;48.246;9.220;2023-05-20T16:09:14;93814.00;;;28.81;34.40
73600;BME280;61877;48.246;9.220;2023-05-20T16:11:40;93805.81;;;29.50;31.82
73600;BME280;61877;48.246;9.220;2023-05-20T16:14:05;93809.50;;;29.56;32.13
73600;BME280;61877;48.246;9.220;2023-05-20T16:16:31;93814.00;;;28.81;31.52
73600;BME280;61877;48.246;9.220;2023-05-20T16:19:00;93813.84;;;28.09;33.34
73600;BME280;61877;48.246;9.220;2023-05-20T16:21:25;93810.25;;;27.17;34.03
73600;BME280;61877;48.246;9.220;2023-05-20T16:23:53;93811.28;;;27.10;34.80
73600;BME280;61877;48.246;9.220;2023-05-20T16:26:18;93811.91;;;26.71;34.17
73600;BME280;61877;48.246;9.220;2023-05-20T16:28:51;93802.41;;;27.28;35.53
73600;BME280;61877;48.246;9.220;2023-05-20T16:31:16;93805.97;;;26.94;36.08
73600;BME280;61877;48.246;9.220;2023-05-20T16:33:42;93805.06;;;26.76;36.06
73600;BME280;61877;48.246;9.220;2023-05-20T16:36:08;93807.66;;;26.45;37.24
73600;BME280;61877;48.246;9.220;2023-05-20T16:38:33;93812.59;;;25.78;38.22
73600;BME280;61877;48.246;9.220;2023-05-20T16:41:03;93816.59;;;25.36;38.19
73600;BME280;61877;48.246;9.220;2023-05-20T16:43:29;93816.84;;;25.00;39.73
73600;BME280;61877;48.246;9.220;2023-05-20T16:45:54;93819.47;;;25.04;40.36
73600;BME280;61877;48.246;9.220;2023-05-20T16:48:20;93820.97;;;24.64;41.26
73600;BME280;61877;48.246;9.220;2023-05-20T16:50:46;93825.09;;;24.72;40.26
73600;BME280;61877;48.246;9.220;2023-05-20T16:53:12;93827.47;;;24.70;40.29
73600;BME280;61877;48.246;9.220;2023-05-20T16:55:39;93824.97;;;25.04;42.68
73600;BME280;61877;48.246;9.220;2023-05-20T16:58:10;93822.81;;;25.24;41.08
73600;BME280;61877;48.246;9.220;2023-05-20T17:00:36;93826.72;;;24.98;39.92
73600;BME280;61877;48.246;9.220;2023-05-20T17:03:01;93822.31;;;24.27;42.49
73600;BME280;61877;48.246;9.220;2023-05-20T17:05:30;93823.91;;;23.92;42.70
73600;BME280;61877;48.246;9.220;2023-05-20T17:08:07;93813.63;;;24.45;43.50
73600;BME280;61877;48.246;9.220;2023-05-20T17:10:32;93818.03;;;24.71;42.33
73600;BME280;61877;48.246;9.220;2023-05-20T17:13:16;93830.06;;;24.89;41.32
73600;BME280;61877;48.246;9.220;2023-05-20T17:15:41;93825.38;;;25.02;39.78
73600;BME280;61877;48.246;9.220;2023-05-20T17:18:07;93824.91;;;24.79;42.04
73600;BME280;61877;48.246;9.220;2023-05-20T17:20:33;93826.66;;;24.41;42.80
73600;BME280;61877;48.246;9.220;2023-05-20T17:22:58;93814.16;;;24.23;42.23
73600;BME280;61877;48.246;9.220;2023-05-20T17:25:24;93825.25;;;23.68;43.21
73600;BME280;61877;48.246;9.220;2023-05-20T17:30:59;93830.22;;;23.18;45.47
73600;BME280;61877;48.246;9.220;2023-05-20T17:33:27;93832.50;;;22.84;45.99